sensor_id;sensor_type;location;lat;lon;timestamp;P1;durP1;ratioP1;P2;durP2;ratioP2
7823;SDS011;3957;48.61947800;9.05303100;2022-09-03T00:00:55;1.33;;;1.23;;
7823;SDS011;3957;48.61947800;9.05303100;2022-09-03T00:03:09;1.63;;;1.48;;
7823;SDS011;3957;48.61947800;9.05303100;2022-09-03T00:04:06;1.40;;;1.30;;
7823;SDS011;3957;48.61947800;9.05303100;2022-09-03T00:05:36;1.30;;;1.20;;
7823;SDS011;3957;48.61947800;9.05303100;2022-09-03T00:07:02;1.83;;;1.60;;
7823;SDS011;3957;48.61947800;9.05303100;2022-09-03T00:08:32;2.20;;;1.58;;
7823;SDS011;3957;48.61947800;9.05303100;2022-09-03T00:10:01;1.60;;;1.42;;
7823;SDS011;3957;48.61947800;9.05303100;2022-09-03T00:11:29;2.72;;;1.60;;
7823;SDS011;3957;48.61947800;9.05303100;2022-09-03T00:12:59;2.20;;;1.40;;
7823;SDS011;3957;48.61947800;9.05303100;2022-09-03T00:14:24;1.60;;;1.47;;
7823;SDS011;3957;48.61947800;9.05303100;2022-09-03T00:15:53;1.60;;;1.45;;
7823;SDS011;3957;48.61947800;9.05303100;2022-09-03T00:17:59;1.75;;;1.50;;
7823;SDS011;3957;48.61947800;9.05303100;2022-09-03T00:19:03;2.05;;;1.50;;
7823;SDS011;3957;48.61947800;9.05303100;2022-09-03T00:20:38;1.60;;;1.50;;
7823;SDS011;3957;48.61947800;9.05303100;2022-09-03T00:22:11;1.97;;;1.33;;
7823;SDS011;3957;48.61947800;9.05303100;2022-09-03T00:23:40;1.73;;;1.42;;
7823;SDS011;3957;48.61947800;9.05303100;2022-09-03T00:25:04;2.28;;;1.70;;
7823;SDS011;3957;48.61947800;9.05303100;2022-09-03T00:26:32;2.45;;;1.50;;
7823;SDS011;3957;48.61947800;9.05303100;2022-09-03T00:27:56;1.50;;;1.40;;
7823;SDS011;3957;48.61947800;9.05303100;2022-09-03T00:29:24;2.63;;;1.90;;
7823;SDS011;3957;48.61947800;9.05303100;2022-09-03T00:30:55;1.50;;;1.40;;
7823;SDS011;3957;48.61947800;9.05303100;2022-09-03T00:32:39;1.45;;;1.35;;
7823;SDS011;3957;48.61947800;9.05303100;2022-09-03T00:35:40;1.67;;;1.58;;
7823;SDS011;3957;48.61947800;9.05303100;2022-09-03T00:37:07;1.60;;;1.50;;
7823;SDS011;3957;48.61947800;9.05303100;2022-09-03T00:38:29;1.80;;;1.60;;
7823;SDS011;3957;48.61947800;9.05303100;2022-09-03T00:39:50;2.17;;;1.80;;
7823;SDS011;3957;48.61947800;9.05303100;2022-09-03T00:42:59;1.80;;;1.70;;
7823;SDS011;3957;48.61947800;9.05303100;2022-09-03T00:47:51;2.10;;;1.90;;
7823;SDS011;3957;48.61947800;9.05303100;2022-09-03T00:51:06;1.60;;;1.50;;
7823;SDS011;3957;48.61947800;9.05303100;2022-09-03T00:57:51;1.73;;;1.25;;
7823;SDS011;3957;48.61947800;9.05303100;2022-09-03T01:00:46;1.50;;;1.40;;
7823;SDS011;3957;48.61947800;9.05303100;2022-09-03T01:02:14;2.00;;;1.42;;
7823;SDS011;3957;48.61947800;9.05303100;2022-09-03T01:03:40;2.28;;;1.55;;
7823;SDS011;3957;48.61947800;9.05303100;2022-09-03T01:07:39;1.77;;;1.40;;
7823;SDS011;3957;48.61947800;9.05303100;2022-09-03T01:10:53;1.30;;;1.20;;
7823;SDS011;3957;48.61947800;9.05303100;2022-09-03T01:15:32;1.92;;;1.42;;
7823;SDS011;3957;48.61947800;9.05303100;2022-09-03T01:17:26;1.75;;;1.40;;
7823;SDS011;3957;48.61947800;9.05303100;2022-09-03T01:30:26;1.27;;;1.17;;
7823;SDS011;3957;48.61947800;9.05303100;2022-09-03T01:31:57;1.30;;;1.20;;
7823;SDS011;3957;48.61947800;9.05303100;2022-09-03T01:33:28;1.38;;;1.27;;
7823;SDS011;3957;48.61947800;9.05303100;2022-09-03T01:39:59;1.50;;;1.40;;
7823;SDS011;3957;48.61947800;9.05303100;2022-09-03T01:41:27;1.30;;;1.20;;
7823;SDS011;3957;48.61947800;9.05303100;2022-09-03T01:43:32;2.08;;;1.33;;
7823;SDS011;3957;48.61947800;9.05303100;2022-09-03T01:46:42;1.30;;;1.20;;
7823;SDS011;3957;48.61947800;9.05303100;2022-09-03T01:49:39;1.70;;;1.35;;
7823;SDS011;3957;48.61947800;9.05303100;2022-09-03T01:51:22;1.30;;;1.20;;
7823;SDS011;3957;48.61947800;9.05303100;2022-09-03T01:57:48;1.40;;;1.20;;
7823;SDS011;3957;48.61947800;9.05303100;2022-09-03T01:59:29;1.52;;;1.42;;
7823;SDS011;3957;48.61947800;9.05303100;2022-09-03T02:00:55;1.95;;;1.52;;
7823;SDS011;3957;48.61947800;9.05303100;2022-09-03T02:02:25;1.83;;;1.60;;
7823;SDS011;3957;48.61947800;9.05303100;2022-09-03T02:03:47;2.90;;;1.50;;
7823;SDS011;3957;48.61947800;9.05303100;2022-09-03T02:05:22;2.05;;;1.70;;
7823;SDS011;3957;48.61947800;9.05303100;2022-09-03T02:06:45;1.55;;;1.30;;
7823;SDS011;3957;48.61947800;9.05303100;2022-09-03T02:08:08;1.40;;;1.30;;
7823;SDS011;3957;48.61947800;9.05303100;2022-09-03T02:09:30;1.40;;;1.30;;
7823;SDS011;3957;48.61947800;9.05303100;2022-09-03T02:10:52;2.67;;;1.50;;
7823;SDS011;3957;48.61947800;9.05303100;2022-09-03T02:12:14;1.98;;;1.70;;
7823;SDS011;3957;48.61947800;9.05303100;2022-09-03T02:13:40;1.73;;;1.63;;
7823;SDS011;3957;48.61947800;9.05303100;2022-09-03T02:15:09;2.92;;;1.77;;
7823;SDS011;3957;48.61947800;9.05303100;2022-09-03T02:16:32;2.30;;;1.30;;
7823;SDS011;3957;48.61947800;9.05303100;2022-09-03T02:17:55;2.33;;;1.67;;
7823;SDS011;3957;48.61947800;9.05303100;2022-09-03T02:19:19;1.60;;;1.50;;
7823;SDS011;3957;48.61947800;9.05303100;2022-09-03T02:20:40;2.15;;;1.67;;
7823;SDS011;3957;48.61947800;9.05303100;2022-09-03T02:22:02;1.45;;;1.35;;
7823;SDS011;3957;48.61947800;9.05303100;2022-09-03T02:23:24;2.20;;;1.52;;
7823;SDS011;3957;48.61947800;9.05303100;2022-09-03T02:24:45;1.50;;;1.40;;
7823;SDS011;3957;48.61947800;9.05303100;2022-09-03T02:26:07;1.63;;;1.48;;
7823;SDS011;3957;48.61947800;9.05303100;2022-09-03T02:27:31;1.85;;;1.58;;
7823;SDS011;3957;48.61947800;9.05303100;2022-09-03T02:28:52;2.38;;;1.38;;
7823;SDS011;3957;48.61947800;9.05303100;2022-09-03T02:30:15;2.80;;;1.40;;
7823;SDS011;3957;48.61947800;9.05303100;2022-09-03T02:31:37;2.10;;;1.60;;
7823;SDS011;3957;48.61947800;9.05303100;2022-09-03T02:32:58;1.52;;;1.42;;
7823;SDS011;3957;48.61947800;9.05303100;2022-09-03T02:34:19;1.40;;;1.30;;
7823;SDS011;3957;48.61947800;9.05303100;2022-09-03T02:35:40;2.33;;;1.60;;
7823;SDS011;3957;48.61947800;9.05303100;2022-09-03T02:37:10;3.63;;;2.00;;
7823;SDS011;3957;48.61947800;9.05303100;2022-09-03T02:38:33;2.20;;;2.00;;
7823;SDS011;3957;48.61947800;9.05303100;2022-09-03T02:39:54;3.00;;;2.00;;
7823;SDS011;3957;48.61947800;9.05303100;2022-09-03T02:41:15;2.05;;;1.67;;
7823;SDS011;3957;48.61947800;9.05303100;2022-09-03T02:42:37;2.22;;;1.65;;
7823;SDS011;3957;48.61947800;9.05303100;2022-09-03T02:45:31;3.30;;;2.00;;
7823;SDS011;3957;48.61947800;9.05303100;2022-09-03T02:46:53;1.80;;;1.70;;
7823;SDS011;3957;48.61947800;9.05303100;2022-09-03T02:48:23;2.03;;;1.83;;
7823;SDS011;3957;48.61947800;9.05303100;2022-09-03T02:49:45;2.80;;;1.80;;
7823;SDS011;3957;48.61947800;9.05303100;2022-09-03T02:51:08;1.73;;;1.63;;
7823;SDS011;3957;48.61947800;9.05303100;2022-09-03T02:52:29;1.58;;;1.48;;
7823;SDS011;3957;48.61947800;9.05303100;2022-09-03T02:53:50;1.60;;;1.50;;
7823;SDS011;3957;48.61947800;9.05303100;2022-09-03T02:55:11;2.13;;;1.88;;
7823;SDS011;3957;48.61947800;9.05303100;2022-09-03T02:56:32;2.08;;;1.90;;
7823;SDS011;3957;48.61947800;9.05303100;2022-09-03T02:57:53;1.75;;;1.65;;
7823;SDS011;3957;48.61947800;9.05303100;2022-09-03T02:59:13;2.40;;;1.80;;
7823;SDS011;3957;48.61947800;9.05303100;2022-09-03T03:00:36;2.90;;;1.80;;
7823;SDS011;3957;48.61947800;9.05303100;2022-09-03T03:01:57;2.83;;;2.20;;
7823;SDS011;3957;48.61947800;9.05303100;2022-09-03T03:03:17;1.93;;;1.80;;
7823;SDS011;3957;48.61947800;9.05303100;2022-09-03T03:04:39;2.33;;;1.95;;
7823;SDS011;3957;48.61947800;9.05303100;2022-09-03T03:06:00;2.63;;;1.90;;
7823;SDS011;3957;48.61947800;9.05303100;2022-09-03T03:07:23;2.20;;;2.00;;
7823;SDS011;3957;48.61947800;9.05303100;2022-09-03T03:08:46;2.22;;;2.03;;
7823;SDS011;3957;48.61947800;9.05303100;2022-09-03T03:10:09;2.20;;;2.00;;
7823;SDS011;3957;48.61947800;9.05303100;2022-09-03T03:11:30;2.55;;;1.80;;
7823;SDS011;3957;48.61947800;9.05303100;2022-09-03T03:12:51;2.20;;;1.90;;
7823;SDS011;3957;48.61947800;9.05303100;2022-09-03T03:14:11;3.13;;;1.95;;
7823;SDS011;3957;48.61947800;9.05303100;2022-09-03T03:15:32;2.13;;;1.92;;
7823;SDS011;3957;48.61947800;9.05303100;2022-09-03T03:16:53;2.95;;;1.98;;
7823;SDS011;3957;48.61947800;9.05303100;2022-09-03T03:18:14;2.30;;;1.75;;
7823;SDS011;3957;48.61947800;9.05303100;2022-09-03T03:19:36;2.30;;;1.90;;
7823;SDS011;3957;48.61947800;9.05303100;2022-09-03T03:21:02;2.50;;;2.00;;
7823;SDS011;3957;48.61947800;9.05303100;2022-09-03T03:22:26;1.88;;;1.70;;
7823;SDS011;3957;48.61947800;9.05303100;2022-09-03T03:23:47;2.05;;;1.85;;
7823;SDS011;3957;48.61947800;9.05303100;2022-09-03T03:25:08;1.80;;;1.70;;
7823;SDS011;3957;48.61947800;9.05303100;2022-09-03T03:26:29;2.45;;;2.20;;
7823;SDS011;3957;48.61947800;9.05303100;2022-09-03T03:27:49;2.42;;;2.00;;
7823;SDS011;3957;48.61947800;9.05303100;2022-09-03T03:29:14;2.17;;;1.88;;
7823;SDS011;3957;48.61947800;9.05303100;2022-09-03T03:30:40;5.45;;;2.30;;
7823;SDS011;3957;48.61947800;9.05303100;2022-09-03T03:32:02;2.78;;;1.83;;
7823;SDS011;3957;48.61947800;9.05303100;2022-09-03T03:33:22;2.30;;;1.95;;
7823;SDS011;3957;48.61947800;9.05303100;2022-09-03T03:34:43;2.22;;;2.03;;
7823;SDS011;3957;48.61947800;9.05303100;2022-09-03T03:36:08;2.10;;;1.90;;
7823;SDS011;3957;48.61947800;9.05303100;2022-09-03T03:37:34;2.20;;;2.00;;
7823;SDS011;3957;48.61947800;9.05303100;2022-09-03T03:38:56;2.65;;;2.10;;
7823;SDS011;3957;48.61947800;9.05303100;2022-09-03T03:40:18;2.60;;;1.88;;
7823;SDS011;3957;48.61947800;9.05303100;2022-09-03T03:41:39;2.42;;;2.20;;
7823;SDS011;3957;48.61947800;9.05303100;2022-09-03T03:43:00;2.60;;;2.40;;
7823;SDS011;3957;48.61947800;9.05303100;2022-09-03T03:44:21;2.78;;;2.20;;
7823;SDS011;3957;48.61947800;9.05303100;2022-09-03T03:45:41;2.05;;;1.92;;
7823;SDS011;3957;48.61947800;9.05303100;2022-09-03T03:47:02;2.35;;;2.10;;
7823;SDS011;3957;48.61947800;9.05303100;2022-09-03T03:48:25;3.30;;;2.03;;
7823;SDS011;3957;48.61947800;9.05303100;2022-09-03T03:49:46;2.65;;;2.00;;
7823;SDS011;3957;48.61947800;9.05303100;2022-09-03T03:51:07;2.15;;;1.90;;
7823;SDS011;3957;48.61947800;9.05303100;2022-09-03T03:52:29;3.53;;;2.50;;
7823;SDS011;3957;48.61947800;9.05303100;2022-09-03T03:53:52;3.33;;;2.60;;
7823;SDS011;3957;48.61947800;9.05303100;2022-09-03T03:55:14;2.72;;;2.42;;
7823;SDS011;3957;48.61947800;9.05303100;2022-09-03T03:56:35;2.22;;;2.10;;
7823;SDS011;3957;48.61947800;9.05303100;2022-09-03T03:57:57;2.65;;;2.40;;
7823;SDS011;3957;48.61947800;9.05303100;2022-09-03T03:59:18;2.92;;;2.38;;
7823;SDS011;3957;48.61947800;9.05303100;2022-09-03T04:00:38;2.55;;;2.35;;
7823;SDS011;3957;48.61947800;9.05303100;2022-09-03T04:01:59;2.55;;;2.30;;
7823;SDS011;3957;48.61947800;9.05303100;2022-09-03T04:03:20;2.30;;;2.10;;
7823;SDS011;3957;48.61947800;9.05303100;2022-09-03T04:04:41;2.33;;;1.95;;
7823;SDS011;3957;48.61947800;9.05303100;2022-09-03T04:06:02;2.58;;;2.10;;
7823;SDS011;3957;48.61947800;9.05303100;2022-09-03T04:07:24;2.78;;;2.20;;
7823;SDS011;3957;48.61947800;9.05303100;2022-09-03T04:08:45;3.17;;;2.50;;
7823;SDS011;3957;48.61947800;9.05303100;2022-09-03T04:10:07;3.50;;;2.40;;
7823;SDS011;3957;48.61947800;9.05303100;2022-09-03T04:11:28;3.67;;;2.28;;
7823;SDS011;3957;48.61947800;9.05303100;2022-09-03T04:12:52;2.00;;;1.90;;
7823;SDS011;3957;48.61947800;9.05303100;2022-09-03T04:14:13;2.75;;;2.30;;
7823;SDS011;3957;48.61947800;9.05303100;2022-09-03T04:15:34;2.45;;;2.05;;
7823;SDS011;3957;48.61947800;9.05303100;2022-09-03T04:16:56;3.17;;;2.40;;
7823;SDS011;3957;48.61947800;9.05303100;2022-09-03T04:18:17;2.70;;;2.42;;
7823;SDS011;3957;48.61947800;9.05303100;2022-09-03T04:19:37;2.25;;;2.05;;
7823;SDS011;3957;48.61947800;9.05303100;2022-09-03T04:21:02;2.83;;;2.50;;
7823;SDS011;3957;48.61947800;9.05303100;2022-09-03T04:22:26;6.07;;;2.38;;
7823;SDS011;3957;48.61947800;9.05303100;2022-09-03T04:23:48;2.55;;;2.35;;
7823;SDS011;3957;48.61947800;9.05303100;2022-09-03T04:25:10;2.50;;;2.10;;
7823;SDS011;3957;48.61947800;9.05303100;2022-09-03T04:26:31;2.50;;;2.30;;
7823;SDS011;3957;48.61947800;9.05303100;2022-09-03T04:27:53;2.45;;;2.25;;
7823;SDS011;3957;48.61947800;9.05303100;2022-09-03T04:29:14;2.35;;;2.03;;
7823;SDS011;3957;48.61947800;9.05303100;2022-09-03T04:30:36;2.50;;;2.30;;
7823;SDS011;3957;48.61947800;9.05303100;2022-09-03T04:31:56;3.08;;;2.53;;
7823;SDS011;3957;48.61947800;9.05303100;2022-09-03T04:33:36;2.30;;;2.10;;
7823;SDS011;3957;48.61947800;9.05303100;2022-09-03T04:34:57;2.20;;;1.95;;
7823;SDS011;3957;48.61947800;9.05303100;2022-09-03T04:36:19;2.95;;;2.15;;
7823;SDS011;3957;48.61947800;9.05303100;2022-09-03T04:37:41;3.33;;;2.30;;
7823;SDS011;3957;48.61947800;9.05303100;2022-09-03T04:39:02;4.28;;;2.50;;
7823;SDS011;3957;48.61947800;9.05303100;2022-09-03T04:40:22;2.33;;;2.13;;
7823;SDS011;3957;48.61947800;9.05303100;2022-09-03T04:41:43;3.75;;;2.53;;
7823;SDS011;3957;48.61947800;9.05303100;2022-09-03T04:43:04;4.07;;;2.38;;
7823;SDS011;3957;48.61947800;9.05303100;2022-09-03T04:44:25;3.10;;;2.60;;
7823;SDS011;3957;48.61947800;9.05303100;2022-09-03T04:45:46;3.00;;;2.60;;
7823;SDS011;3957;48.61947800;9.05303100;2022-09-03T04:47:07;3.58;;;2.55;;
7823;SDS011;3957;48.61947800;9.05303100;2022-09-03T04:48:28;2.47;;;2.28;;
7823;SDS011;3957;48.61947800;9.05303100;2022-09-03T04:49:50;3.15;;;2.33;;
7823;SDS011;3957;48.61947800;9.05303100;2022-09-03T04:51:11;2.80;;;2.30;;
7823;SDS011;3957;48.61947800;9.05303100;2022-09-03T04:52:34;3.25;;;2.95;;
7823;SDS011;3957;48.61947800;9.05303100;2022-09-03T04:53:55;3.50;;;2.70;;
7823;SDS011;3957;48.61947800;9.05303100;2022-09-03T04:55:18;3.28;;;2.97;;
7823;SDS011;3957;48.61947800;9.05303100;2022-09-03T04:56:39;3.72;;;3.13;;
7823;SDS011;3957;48.61947800;9.05303100;2022-09-03T04:58:00;3.00;;;2.60;;
7823;SDS011;3957;48.61947800;9.05303100;2022-09-03T04:59:21;4.10;;;2.95;;
7823;SDS011;3957;48.61947800;9.05303100;2022-09-03T05:00:41;4.53;;;2.92;;
7823;SDS011;3957;48.61947800;9.05303100;2022-09-03T05:02:02;3.42;;;3.00;;
7823;SDS011;3957;48.61947800;9.05303100;2022-09-03T05:03:23;3.38;;;2.85;;
7823;SDS011;3957;48.61947800;9.05303100;2022-09-03T05:04:43;3.55;;;2.75;;
7823;SDS011;3957;48.61947800;9.05303100;2022-09-03T05:06:06;5.40;;;2.70;;
7823;SDS011;3957;48.61947800;9.05303100;2022-09-03T05:07:28;3.20;;;2.90;;
7823;SDS011;3957;48.61947800;9.05303100;2022-09-03T05:08:58;4.32;;;2.95;;
7823;SDS011;3957;48.61947800;9.05303100;2022-09-03T05:10:19;2.83;;;2.58;;
7823;SDS011;3957;48.61947800;9.05303100;2022-09-03T05:11:40;3.97;;;2.70;;
7823;SDS011;3957;48.61947800;9.05303100;2022-09-03T05:13:02;3.05;;;2.72;;
7823;SDS011;3957;48.61947800;9.05303100;2022-09-03T05:14:24;2.70;;;2.50;;
7823;SDS011;3957;48.61947800;9.05303100;2022-09-03T05:15:45;3.05;;;2.75;;
7823;SDS011;3957;48.61947800;9.05303100;2022-09-03T05:17:06;4.43;;;3.05;;
7823;SDS011;3957;48.61947800;9.05303100;2022-09-03T05:18:27;3.42;;;2.85;;
7823;SDS011;3957;48.61947800;9.05303100;2022-09-03T05:19:48;3.05;;;2.75;;
7823;SDS011;3957;48.61947800;9.05303100;2022-09-03T05:21:15;2.53;;;2.33;;
7823;SDS011;3957;48.61947800;9.05303100;2022-09-03T05:22:37;2.92;;;2.63;;
7823;SDS011;3957;48.61947800;9.05303100;2022-09-03T05:23:58;2.80;;;2.50;;
7823;SDS011;3957;48.61947800;9.05303100;2022-09-03T05:25:19;2.78;;;2.58;;
7823;SDS011;3957;48.61947800;9.05303100;2022-09-03T05:26:40;3.35;;;2.80;;
7823;SDS011;3957;48.61947800;9.05303100;2022-09-03T05:28:01;2.60;;;2.40;;
7823;SDS011;3957;48.61947800;9.05303100;2022-09-03T05:29:22;2.60;;;2.40;;
7823;SDS011;3957;48.61947800;9.05303100;2022-09-03T05:30:43;3.05;;;2.75;;
7823;SDS011;3957;48.61947800;9.05303100;2022-09-03T05:32:04;2.90;;;2.58;;
7823;SDS011;3957;48.61947800;9.05303100;2022-09-03T05:33:25;2.78;;;2.58;;
7823;SDS011;3957;48.61947800;9.05303100;2022-09-03T05:34:47;3.13;;;2.83;;
7823;SDS011;3957;48.61947800;9.05303100;2022-09-03T05:36:11;3.53;;;3.00;;
7823;SDS011;3957;48.61947800;9.05303100;2022-09-03T05:37:34;3.97;;;2.50;;
7823;SDS011;3957;48.61947800;9.05303100;2022-09-03T05:38:55;3.83;;;2.42;;
7823;SDS011;3957;48.61947800;9.05303100;2022-09-03T05:40:16;3.70;;;2.67;;
7823;SDS011;3957;48.61947800;9.05303100;2022-09-03T05:41:37;3.75;;;2.45;;
7823;SDS011;3957;48.61947800;9.05303100;2022-09-03T05:42:58;2.95;;;2.60;;
7823;SDS011;3957;48.61947800;9.05303100;2022-09-03T05:44:19;2.70;;;2.50;;
7823;SDS011;3957;48.61947800;9.05303100;2022-09-03T05:45:43;3.20;;;2.90;;
7823;SDS011;3957;48.61947800;9.05303100;2022-09-03T05:47:04;3.40;;;2.80;;
7823;SDS011;3957;48.61947800;9.05303100;2022-09-03T05:48:25;3.03;;;2.72;;
7823;SDS011;3957;48.61947800;9.05303100;2022-09-03T05:49:46;2.65;;;2.45;;
7823;SDS011;3957;48.61947800;9.05303100;2022-09-03T05:51:08;4.45;;;2.90;;
7823;SDS011;3957;48.61947800;9.05303100;2022-09-03T05:52:30;4.27;;;2.97;;
7823;SDS011;3957;48.61947800;9.05303100;2022-09-03T05:53:51;2.97;;;2.75;;
7823;SDS011;3957;48.61947800;9.05303100;2022-09-03T05:55:12;5.10;;;2.95;;
7823;SDS011;3957;48.61947800;9.05303100;2022-09-03T05:56:34;2.83;;;2.63;;
7823;SDS011;3957;48.61947800;9.05303100;2022-09-03T05:57:55;3.00;;;2.70;;
7823;SDS011;3957;48.61947800;9.05303100;2022-09-03T05:59:16;3.47;;;2.83;;
7823;SDS011;3957;48.61947800;9.05303100;2022-09-03T06:00:37;3.42;;;2.60;;
7823;SDS011;3957;48.61947800;9.05303100;2022-09-03T06:01:58;4.22;;;2.78;;
7823;SDS011;3957;48.61947800;9.05303100;2022-09-03T06:03:18;3.42;;;3.13;;
7823;SDS011;3957;48.61947800;9.05303100;2022-09-03T06:04:39;2.80;;;2.60;;
7823;SDS011;3957;48.61947800;9.05303100;2022-09-03T06:06:00;3.92;;;2.90;;
7823;SDS011;3957;48.61947800;9.05303100;2022-09-03T06:07:20;3.20;;;2.90;;
7823;SDS011;3957;48.61947800;9.05303100;2022-09-03T06:08:41;3.38;;;3.00;;
7823;SDS011;3957;48.61947800;9.05303100;2022-09-03T06:10:04;3.10;;;2.75;;
7823;SDS011;3957;48.61947800;9.05303100;2022-09-03T06:11:27;3.22;;;2.50;;
7823;SDS011;3957;48.61947800;9.05303100;2022-09-03T06:12:50;3.45;;;2.67;;
7823;SDS011;3957;48.61947800;9.05303100;2022-09-03T06:14:12;3.10;;;2.80;;
7823;SDS011;3957;48.61947800;9.05303100;2022-09-03T06:15:33;3.97;;;2.88;;
7823;SDS011;3957;48.61947800;9.05303100;2022-09-03T06:16:54;3.22;;;2.90;;
7823;SDS011;3957;48.61947800;9.05303100;2022-09-03T06:18:16;4.30;;;2.97;;
7823;SDS011;3957;48.61947800;9.05303100;2022-09-03T06:19:37;3.33;;;2.92;;
7823;SDS011;3957;48.61947800;9.05303100;2022-09-03T06:20:59;3.33;;;2.97;;
7823;SDS011;3957;48.61947800;9.05303100;2022-09-03T06:22:21;3.08;;;2.78;;
7823;SDS011;3957;48.61947800;9.05303100;2022-09-03T06:23:48;4.10;;;2.70;;
7823;SDS011;3957;48.61947800;9.05303100;2022-09-03T06:25:11;3.03;;;2.72;;
7823;SDS011;3957;48.61947800;9.05303100;2022-09-03T06:26:32;3.70;;;2.80;;
7823;SDS011;3957;48.61947800;9.05303100;2022-09-03T06:27:53;3.97;;;2.72;;
7823;SDS011;3957;48.61947800;9.05303100;2022-09-03T06:29:14;3.13;;;2.73;;
7823;SDS011;3957;48.61947800;9.05303100;2022-09-03T06:30:35;6.45;;;2.80;;
7823;SDS011;3957;48.61947800;9.05303100;2022-09-03T06:31:56;4.40;;;2.83;;
7823;SDS011;3957;48.61947800;9.05303100;2022-09-03T06:33:19;3.20;;;2.90;;
7823;SDS011;3957;48.61947800;9.05303100;2022-09-03T06:34:40;3.30;;;2.97;;
7823;SDS011;3957;48.61947800;9.05303100;2022-09-03T06:36:01;3.35;;;3.05;;
7823;SDS011;3957;48.61947800;9.05303100;2022-09-03T06:37:24;3.53;;;2.90;;
7823;SDS011;3957;48.61947800;9.05303100;2022-09-03T06:38:45;3.50;;;2.75;;
7823;SDS011;3957;48.61947800;9.05303100;2022-09-03T06:40:06;4.18;;;2.90;;
7823;SDS011;3957;48.61947800;9.05303100;2022-09-03T06:41:31;4.63;;;2.80;;
7823;SDS011;3957;48.61947800;9.05303100;2022-09-03T06:42:55;3.20;;;2.80;;
7823;SDS011;3957;48.61947800;9.05303100;2022-09-03T06:44:21;3.67;;;2.60;;
7823;SDS011;3957;48.61947800;9.05303100;2022-09-03T06:45:42;2.90;;;2.60;;
7823;SDS011;3957;48.61947800;9.05303100;2022-09-03T06:47:03;3.25;;;2.55;;
7823;SDS011;3957;48.61947800;9.05303100;2022-09-03T06:48:24;2.92;;;2.58;;
7823;SDS011;3957;48.61947800;9.05303100;2022-09-03T06:49:46;2.97;;;2.67;;
7823;SDS011;3957;48.61947800;9.05303100;2022-09-03T06:51:07;3.10;;;2.80;;
7823;SDS011;3957;48.61947800;9.05303100;2022-09-03T06:52:30;2.97;;;2.67;;
7823;SDS011;3957;48.61947800;9.05303100;2022-09-03T06:53:52;2.75;;;2.42;;
7823;SDS011;3957;48.61947800;9.05303100;2022-09-03T06:55:14;3.20;;;2.70;;
7823;SDS011;3957;48.61947800;9.05303100;2022-09-03T06:56:36;3.00;;;2.72;;
7823;SDS011;3957;48.61947800;9.05303100;2022-09-03T06:57:58;3.80;;;2.70;;
7823;SDS011;3957;48.61947800;9.05303100;2022-09-03T06:59:18;2.63;;;2.42;;
7823;SDS011;3957;48.61947800;9.05303100;2022-09-03T07:00:39;4.82;;;2.60;;
7823;SDS011;3957;48.61947800;9.05303100;2022-09-03T07:02:00;3.05;;;2.60;;
7823;SDS011;3957;48.61947800;9.05303100;2022-09-03T07:03:23;3.10;;;2.20;;
7823;SDS011;3957;48.61947800;9.05303100;2022-09-03T07:04:43;2.42;;;2.22;;
7823;SDS011;3957;48.61947800;9.05303100;2022-09-03T07:06:05;2.40;;;2.20;;
7823;SDS011;3957;48.61947800;9.05303100;2022-09-03T07:07:27;2.60;;;2.40;;
7823;SDS011;3957;48.61947800;9.05303100;2022-09-03T07:08:48;2.97;;;2.10;;
7823;SDS011;3957;48.61947800;9.05303100;2022-09-03T07:10:09;2.47;;;2.28;;
7823;SDS011;3957;48.61947800;9.05303100;2022-09-03T07:11:31;3.28;;;2.55;;
7823;SDS011;3957;48.61947800;9.05303100;2022-09-03T07:12:54;2.85;;;2.47;;
7823;SDS011;3957;48.61947800;9.05303100;2022-09-03T07:14:16;2.30;;;2.10;;
7823;SDS011;3957;48.61947800;9.05303100;2022-09-03T07:15:38;5.47;;;2.70;;
7823;SDS011;3957;48.61947800;9.05303100;2022-09-03T07:17:00;2.78;;;2.28;;
7823;SDS011;3957;48.61947800;9.05303100;2022-09-03T07:18:21;2.53;;;2.33;;
7823;SDS011;3957;48.61947800;9.05303100;2022-09-03T07:19:42;3.13;;;2.35;;
7823;SDS011;3957;48.61947800;9.05303100;2022-09-03T07:21:07;2.88;;;2.35;;
7823;SDS011;3957;48.61947800;9.05303100;2022-09-03T07:22:33;2.45;;;2.05;;
7823;SDS011;3957;48.61947800;9.05303100;2022-09-03T07:23:54;3.10;;;2.05;;
7823;SDS011;3957;48.61947800;9.05303100;2022-09-03T07:25:16;2.60;;;2.38;;
7823;SDS011;3957;48.61947800;9.05303100;2022-09-03T07:26:38;2.83;;;2.40;;
7823;SDS011;3957;48.61947800;9.05303100;2022-09-03T07:28:04;2.40;;;2.20;;
7823;SDS011;3957;48.61947800;9.05303100;2022-09-03T07:29:26;2.38;;;2.17;;
7823;SDS011;3957;48.61947800;9.05303100;2022-09-03T07:30:47;2.67;;;2.20;;
7823;SDS011;3957;48.61947800;9.05303100;2022-09-03T07:32:08;2.30;;;2.10;;
7823;SDS011;3957;48.61947800;9.05303100;2022-09-03T07:33:29;2.50;;;2.30;;
7823;SDS011;3957;48.61947800;9.05303100;2022-09-03T07:34:50;3.40;;;2.42;;
7823;SDS011;3957;48.61947800;9.05303100;2022-09-03T07:36:15;4.05;;;2.35;;
7823;SDS011;3957;48.61947800;9.05303100;2022-09-03T07:37:38;2.50;;;2.10;;
7823;SDS011;3957;48.61947800;9.05303100;2022-09-03T07:39:00;3.10;;;2.60;;
7823;SDS011;3957;48.61947800;9.05303100;2022-09-03T07:40:23;3.33;;;2.40;;
7823;SDS011;3957;48.61947800;9.05303100;2022-09-03T07:41:44;2.90;;;2.40;;
7823;SDS011;3957;48.61947800;9.05303100;2022-09-03T07:43:06;2.63;;;2.15;;
7823;SDS011;3957;48.61947800;9.05303100;2022-09-03T07:44:26;2.30;;;2.10;;
7823;SDS011;3957;48.61947800;9.05303100;2022-09-03T07:45:50;3.00;;;2.30;;
7823;SDS011;3957;48.61947800;9.05303100;2022-09-03T07:47:11;2.35;;;2.10;;
7823;SDS011;3957;48.61947800;9.05303100;2022-09-03T07:48:34;3.20;;;2.30;;
7823;SDS011;3957;48.61947800;9.05303100;2022-09-03T07:49:55;2.35;;;2.15;;
7823;SDS011;3957;48.61947800;9.05303100;2022-09-03T07:51:16;2.72;;;2.30;;
7823;SDS011;3957;48.61947800;9.05303100;2022-09-03T07:52:37;2.40;;;2.20;;
7823;SDS011;3957;48.61947800;9.05303100;2022-09-03T07:53:59;2.70;;;2.17;;
7823;SDS011;3957;48.61947800;9.05303100;2022-09-03T07:55:22;4.00;;;2.00;;
7823;SDS011;3957;48.61947800;9.05303100;2022-09-03T07:56:43;3.58;;;2.05;;
7823;SDS011;3957;48.61947800;9.05303100;2022-09-03T07:58:03;3.10;;;2.40;;
7823;SDS011;3957;48.61947800;9.05303100;2022-09-03T07:59:24;2.30;;;2.10;;
7823;SDS011;3957;48.61947800;9.05303100;2022-09-03T08:00:45;2.78;;;1.88;;
7823;SDS011;3957;48.61947800;9.05303100;2022-09-03T08:02:06;2.30;;;2.10;;
7823;SDS011;3957;48.61947800;9.05303100;2022-09-03T08:03:27;3.37;;;2.00;;
7823;SDS011;3957;48.61947800;9.05303100;2022-09-03T08:04:48;3.25;;;1.90;;
7823;SDS011;3957;48.61947800;9.05303100;2022-09-03T08:06:09;2.65;;;2.25;;
7823;SDS011;3957;48.61947800;9.05303100;2022-09-03T08:07:30;2.10;;;1.88;;
7823;SDS011;3957;48.61947800;9.05303100;2022-09-03T08:08:54;3.10;;;2.00;;
7823;SDS011;3957;48.61947800;9.05303100;2022-09-03T08:10:18;2.90;;;2.30;;
7823;SDS011;3957;48.61947800;9.05303100;2022-09-03T08:11:39;2.40;;;2.20;;
7823;SDS011;3957;48.61947800;9.05303100;2022-09-03T08:13:02;2.40;;;2.05;;
7823;SDS011;3957;48.61947800;9.05303100;2022-09-03T08:14:26;2.33;;;2.13;;
7823;SDS011;3957;48.61947800;9.05303100;2022-09-03T08:15:53;2.25;;;2.05;;
7823;SDS011;3957;48.61947800;9.05303100;2022-09-03T08:17:14;2.58;;;2.00;;